Time;durP1;ratioP1;P1;durP2;ratioP2;P2;SDS_P1;SDS_P2;PMS_P1;PMS_P2;Temp;Humidity;BMP_temperature;BMP_pressure;BME280_temperature;BME280_humidity;BME280_pressure;Samples;Min_cycle;Max_cycle;Signal;HPM_P1;HPM_P2
2021/07/17 00:01:07;;;;;;;;;15.25;14.00;;;;;18.63;61.92;102383.25;4886406;29;45464;-76
2021/07/17 00:03:32;;;;;;;;;18.50;15.25;;;;;18.61;62.47;102378.91;4885311;29;45298;-77
2021/07/17 00:05:58;;;;;;;;;16.25;15.25;;;;;18.61;61.92;102373.59;4881725;29;45980;-76
2021/07/17 00:08:23;;;;;;;;;12.75;11.75;;;;;18.58;62.13;102374.59;4900186;29;45458;-76
2021/07/17 00:10:50;;;;;;;;;15.50;14.25;;;;;18.55;62.18;102380.91;4886436;29;45291;-76
2021/07/17 00:13:16;;;;;;;;;17.25;14.75;;;;;18.52;62.50;102383.69;4886181;29;46595;-76
2021/07/17 00:15:42;;;;;;;;;15.75;14.25;;;;;18.48;62.12;102378.53;4899795;29;45319;-76
2021/07/17 00:18:08;;;;;;;;;16.25;13.50;;;;;18.40;62.73;102374.41;4885861;29;45344;-77
2021/07/17 00:20:33;;;;;;;;;15.25;14.75;;;;;18.35;62.68;102373.72;4885785;29;45347;-77
2021/07/17 00:22:59;;;;;;;;;16.50;16.25;;;;;18.32;62.87;102384.50;4885974;29;45417;-77
2021/07/17 00:25:25;;;;;;;;;18.75;16.75;;;;;18.28;62.99;102385.53;4900428;29;45269;-78
2021/07/17 00:27:52;;;;;;;;;17.00;14.25;;;;;18.22;63.12;102386.66;4886403;29;45256;-78
2021/07/17 00:30:18;;;;;;;;;20.75;15.25;;;;;18.19;63.05;102390.31;4885818;29;45200;-78
2021/07/17 00:32:45;;;;;;;;;17.00;13.25;;;;;18.19;63.00;102387.66;4886053;29;45272;-78
2021/07/17 00:35:11;;;;;;;;;16.50;14.50;;;;;18.20;62.84;102384.03;4885530;29;45519;-77
2021/07/17 00:37:36;;;;;;;;;17.25;12.75;;;;;18.20;63.13;102386.69;4881784;29;45288;-77
2021/07/17 00:40:04;;;;;;;;;16.25;15.25;;;;;18.22;63.21;102384.00;4876800;29;45350;-77
2021/07/17 00:42:30;;;;;;;;;15.25;14.50;;;;;18.17;62.93;102376.16;4885980;29;46271;-77
2021/07/17 00:44:55;;;;;;;;;17.00;14.25;;;;;18.15;63.32;102377.16;4885393;29;45707;-77
2021/07/17 00:47:21;;;;;;;;;15.25;13.50;;;;;18.11;63.82;102376.38;4885147;29;45494;-77
2021/07/17 00:49:47;;;;;;;;;18.50;16.00;;;;;18.07;63.65;102378.31;4885647;29;46793;-77
2021/07/17 00:52:12;;;;;;;;;21.75;15.75;;;;;18.05;63.15;102379.31;4885479;29;45285;-78
2021/07/17 05:19:57;;;;;;;;;27.50;21.00;;;;;16.31;71.08;102404.66;4894632;28;45722;-79
2021/07/17 05:22:22;;;;;;;;;23.50;18.25;;;;;16.31;70.86;102402.88;4900648;29;45635;-78
2021/07/17 05:24:47;;;;;;;;;22.50;19.50;;;;;16.28;71.09;102405.59;4910531;28;45310;-78
2021/07/17 05:27:13;;;;;;;;;25.25;21.50;;;;;16.25;70.84;102403.03;4900346;28;46090;-79
2021/07/17 05:29:38;;;;;;;;;24.00;21.25;;;;;16.21;71.29;102396.09;4894110;29;48208;-76
2021/07/17 05:32:03;;;;;;;;;26.50;23.00;;;;;16.20;71.30;102397.00;4895764;28;45303;-77
2021/07/17 05:34:29;;;;;;;;;26.25;24.50;;;;;16.19;71.43;102398.81;4902269;28;45896;-77
2021/07/17 05:36:54;;;;;;;;;25.50;22.75;;;;;16.24;71.58;102400.44;4898385;28;45502;-76
2021/07/17 05:39:19;;;;;;;;;21.75;19.75;;;;;16.24;71.58;102403.09;4902614;28;46105;-76
2021/07/17 05:41:45;;;;;;;;;21.00;18.00;;;;;16.24;71.40;102396.00;4902887;28;45319;-75
2021/07/17 05:44:10;;;;;;;;;28.00;24.50;;;;;16.23;71.89;102396.91;4893064;29;45509;-75
2021/07/17 05:46:36;;;;;;;;;25.50;21.75;;;;;16.25;71.73;102400.38;4901233;29;45474;-75
2021/07/17 05:49:01;;;;;;;;;29.75;24.25;;;;;16.29;71.58;102398.53;4900790;29;46271;-75
2021/07/17 05:51:27;;;;;;;;;18.25;13.75;;;;;16.30;71.32;102403.78;4886446;28;45208;-77
2021/07/17 05:53:52;;;;;;;;;23.00;20.00;;;;;16.34;71.68;102401.03;4890117;29;45218;-76
2021/07/17 05:56:17;;;;;;;;;23.50;19.75;;;;;16.38;71.57;102398.22;4884464;29;45650;-77
2021/07/17 05:58:43;;;;;;;;;25.00;23.00;;;;;16.44;71.37;102394.53;4902493;28;45280;-77
2021/07/17 06:01:08;;;;;;;;;24.25;22.00;;;;;16.46;71.00;102394.47;4913264;28;45320;-77
2021/07/17 06:03:33;;;;;;;;;33.00;23.75;;;;;16.59;71.06;102397.59;4901520;29;45251;-77
2021/07/17 06:05:59;;;;;;;;;27.00;24.50;;;;;16.64;70.98;102399.19;4902271;28;45540;-77
2021/07/17 06:08:24;;;;;;;;;18.75;17.25;;;;;16.67;71.04;102400.03;4890135;29;45317;-77
2021/07/17 06:10:50;;;;;;;;;30.00;24.25;;;;;16.69;70.67;102400.84;4900270;29;45269;-77
2021/07/17 06:13:15;;;;;;;;;27.25;24.25;;;;;16.70;70.73;102400.78;4902127;29;45213;-76
2021/07/17 06:15:40;;;;;;;;;28.25;25.00;;;;;16.70;70.58;102387.50;4884209;29;45319;-76
2021/07/17 06:20:42;;;;;;;;;28.75;20.25;;;;;16.82;70.54;102403.94;5134100;27;45485;-78
2021/07/17 06:23:07;;;;;;;;;25.75;23.00;;;;;16.87;70.44;102404.66;5116067;27;45939;-79
2021/07/17 06:25:33;;;;;;;;;27.50;23.75;;;;;16.90;70.24;102398.38;5117228;27;45416;-82
2021/07/17 06:27:58;;;;;;;;;25.25;21.25;;;;;16.90;70.35;102404.56;5116073;27;46434;-80
2021/07/17 06:30:23;;;;;;;;;24.25;19.75;;;;;16.93;70.23;102403.59;5117601;27;45332;-80
2021/07/17 06:32:49;;;;;;;;;27.00;22.50;;;;;16.96;70.55;102407.00;5151481;27;46011;-79
2021/07/17 06:35:14;;;;;;;;;23.50;23.25;;;;;16.98;70.50;102407.84;5125690;27;45252;-79
2021/07/17 06:37:43;;;;;;;;;27.50;23.25;;;;;17.04;70.58;102412.06;5117164;27;45374;-79
2021/07/17 06:40:16;;;;;;;;;24.75;20.75;;;;;17.14;70.17;102423.25;5117183;27;45654;-79
2021/07/17 06:42:46;;;;;;;;;27.00;26.00;;;;;17.21;70.02;102419.47;5130707;27;45603;-79
2021/07/17 06:45:11;;;;;;;;;25.00;23.75;;;;;17.25;69.84;102428.22;5127211;27;45548;-84
2021/07/17 06:47:38;;;;;;;;;23.00;20.50;;;;;17.25;69.67;102428.22;5116386;27;45406;-84
2021/07/17 06:50:05;;;;;;;;;35.50;27.75;;;;;17.25;69.68;102427.34;5116973;27;46563;-86
2021/07/17 06:52:30;;;;;;;;;28.75;23.50;;;;;17.25;69.84;102419.38;5116968;27;45202;-85
2021/07/17 06:54:55;;;;;;;;;25.25;23.00;;;;;17.24;69.76;102421.16;5116978;27;45167;-86
2021/07/17 06:57:21;;;;;;;;;30.75;26.25;;;;;17.22;69.85;102423.00;5133178;27;46049;-84
2021/07/17 06:59:46;;;;;;;;;25.50;22.00;;;;;17.25;70.41;102422.91;5132478;27;47139;-87
2021/07/17 07:02:12;;;;;;;;;27.50;20.25;;;;;17.28;69.82;102429.91;5114564;27;45414;-85
2021/07/17 07:04:37;;;;;;;;;35.50;26.75;;;;;17.28;69.70;102422.81;5109981;27;45443;-83
2021/07/17 07:07:03;;;;;;;;;26.00;21.25;;;;;17.26;69.71;102421.13;5103306;27;45198;-84
2021/07/17 07:09:28;;;;;;;;;25.00;23.50;;;;;17.37;69.88;102423.41;5121215;27;46776;-81
2021/07/17 07:11:53;;;;;;;;;25.75;23.00;;;;;17.48;69.42;102421.22;5124947;27;45342;-81
2021/07/17 07:14:19;;;;;;;;;26.50;24.50;;;;;17.61;69.14;102424.31;5116966;27;45254;-77
2021/07/17 07:16:44;;;;;;;;;26.75;23.25;;;;;17.65;69.00;102423.31;5106086;27;45237;-78
2021/07/17 07:19:09;;;;;;;;;26.75;22.75;;;;;17.70;69.00;102430.25;5111360;27;46433;-78
2021/07/17 07:21:35;;;;;;;;;23.50;21.25;;;;;17.76;69.18;102428.22;5109102;27;45414;-78
2021/07/17 07:24:01;;;;;;;;;23.00;21.75;;;;;17.85;69.13;102434.97;5116825;27;45295;-78
2021/07/17 07:26:26;;;;;;;;;28.00;22.50;;;;;17.90;68.64;102440.16;5114206;27;45300;-80
2021/07/17 07:28:56;;;;;;;;;28.75;23.00;;;;;17.92;69.19;102440.94;5131799;27;48174;-80
2021/07/17 07:31:23;;;;;;;;;33.75;26.25;;;;;17.98;69.07;102443.38;5106505;27;45241;-80
2021/07/17 07:33:48;;;;;;;;;32.50;28.00;;;;;18.02;68.51;102441.47;5090867;27;45280;-81
2021/07/17 07:36:13;;;;;;;;;34.50;27.00;;;;;18.06;68.72;102448.41;5102736;27;45565;-81
2021/07/17 07:38:39;;;;;;;;;27.00;26.25;;;;;18.14;68.28;102439.25;5102412;27;45391;-80
2021/07/17 07:41:04;;;;;;;;;25.75;24.25;;;;;18.18;68.30;102455.06;5102732;27;45320;-80
2021/07/17 07:43:29;;;;;;;;;25.75;25.25;;;;;18.22;68.42;102455.84;5118828;27;45344;-80
2021/07/17 07:45:56;;;;;;;;;30.25;24.00;;;;;18.26;68.02;102456.59;5102386;27;45336;-81
2021/07/17 07:48:21;;;;;;;;;22.25;20.25;;;;;18.32;68.18;102456.38;5118282;27;47134;-80
2021/07/17 07:50:46;;;;;;;;;32.25;26.50;;;;;18.35;67.89;102450.91;5102469;27;45346;-80
2021/07/17 07:53:12;;;;;;;;;30.00;28.25;;;;;18.35;67.48;102456.22;5101506;27;45280;-80
2021/07/17 07:55:37;;;;;;;;;26.00;23.75;;;;;18.33;67.31;102452.75;5101023;27;45796;-80
2021/07/17 07:58:03;;;;;;;;;29.75;23.75;;;;;18.31;67.64;102451.94;5102675;27;45346;-80
2021/07/17 08:00:28;;;;;;;;;33.00;27.00;;;;;18.33;67.82;102458.09;5118225;27;45221;-80
2021/07/17 08:02:54;;;;;;;;;25.50;21.50;;;;;18.35;67.82;102469.53;5101641;27;45162;-80
2021/07/17 08:05:19;;;;;;;;;28.00;26.50;;;;;18.35;67.57;102471.34;5102391;27;45265;-80
2021/07/17 08:07:44;;;;;;;;;29.50;25.75;;;;;18.36;68.02;102465.97;5102300;27;45188;-80
2021/07/17 08:10:10;;;;;;;;;27.50;24.00;;;;;18.40;67.99;102472.00;5107244;27;45280;-80
2021/07/17 08:12:35;;;;;;;;;29.25;26.00;;;;;18.44;67.93;102469.19;5102601;27;45414;-80
2021/07/17 08:15:01;;;;;;;;;26.75;24.00;;;;;18.46;67.61;102470.91;5118065;27;45957;-79
2021/07/17 08:17:26;;;;;;;;;26.25;24.75;;;;;18.39;67.49;102463.19;5102176;27;45390;-79
2021/07/17 08:19:52;;;;;;;;;29.50;25.75;;;;;18.34;68.00;102454.50;5101775;27;45163;-80
2021/07/17 08:22:17;;;;;;;;;24.75;24.00;;;;;18.38;68.05;102453.44;5102201;27;45627;-80
2021/07/17 08:24:42;;;;;;;;;31.00;26.00;;;;;18.44;68.03;102463.00;5112852;27;46217;-80
2021/07/17 08:27:08;;;;;;;;;30.00;27.50;;;;;18.52;67.94;102452.06;5101941;27;46444;-80
2021/07/17 08:29:33;;;;;;;;;30.00;23.25;;;;;18.59;67.41;102455.34;5109214;27;45478;-80
2021/07/17 08:31:59;;;;;;;;;27.25;25.25;;;;;18.62;67.53;102461.38;5106669;27;45363;-80
2021/07/17 08:34:24;;;;;;;;;27.75;23.75;;;;;18.60;67.45;102452.59;5101772;27;45454;-80
2021/07/17 08:36:49;;;;;;;;;24.25;24.25;;;;;18.63;68.00;102449.81;5112516;27;47052;-80
2021/07/17 08:39:15;;;;;;;;;30.25;24.75;;;;;18.70;67.82;102447.78;5101977;27;45443;-80
2021/07/17 08:41:47;;;;;;;;;28.00;22.75;;;;;18.81;68.10;102457.13;5117054;27;45427;-80
2021/07/17 08:44:12;;;;;;;;;27.25;24.50;;;;;18.91;67.30;102452.28;5101391;27;45219;-80
2021/07/17 08:46:39;;;;;;;;;27.50;24.75;;;;;18.98;67.56;102461.75;5101657;27;46434;-80
2021/07/17 08:49:05;;;;;;;;;27.75;24.75;;;;;19.05;67.20;102455.25;5114820;27;45384;-81
2021/07/17 08:51:31;;;;;;;;;27.75;25.50;;;;;19.11;67.15;102457.63;5101952;27;45391;-80
2021/07/17 08:53:57;;;;;;;;;30.00;28.00;;;;;19.21;67.20;102457.31;5101654;27;45324;-80
2021/07/17 08:56:22;;;;;;;;;32.50;26.00;;;;;19.29;66.80;102456.94;5101576;27;46374;-80
2021/07/17 08:58:50;;;;;;;;;32.25;27.00;;;;;19.34;66.87;102455.81;5099937;27;45440;-81
2021/07/17 09:01:16;;;;;;;;;29.25;24.25;;;;;19.41;66.66;102453.75;5104175;27;45448;-80
2021/07/17 09:03:41;;;;;;;;;32.75;29.75;;;;;19.45;65.58;102457.16;5120192;27;45182;-80
2021/07/17 09:06:07;;;;;;;;;26.50;23.25;;;;;19.43;66.38;102445.72;5102338;27;46169;-80
2021/07/17 09:08:32;;;;;;;;;32.75;25.75;;;;;19.51;66.54;102443.56;5101570;27;45152;-80
2021/07/17 09:10:57;;;;;;;;;27.75;27.25;;;;;19.58;66.32;102437.97;5099670;27;45234;-79
2021/07/17 09:13:26;;;;;;;;;28.00;26.75;;;;;19.64;65.55;102440.34;5099405;27;45389;-79
2021/07/17 09:15:51;;;;;;;;;26.00;25.25;;;;;19.69;65.62;102441.00;5099794;27;45562;-79
2021/07/17 09:18:33;;;;;;;;;29.67;26.00;;;;;19.74;66.00;102436.34;5104685;27;45379;-78
2021/07/17 09:21:02;;;;;;;;;27.50;25.75;;;;;19.82;65.55;102440.47;5101570;27;45273;-79
2021/07/17 09:23:31;;;;;;;;;30.50;23.75;;;;;19.84;65.12;102447.47;5101230;27;45550;-79
2021/07/17 09:25:57;;;;;;;;;31.75;27.25;;;;;19.85;65.13;102440.31;5100982;27;45471;-79
2021/07/17 09:28:28;;;;;;;;;31.00;25.25;;;;;19.83;64.85;102432.38;5100958;27;45167;-79
2021/07/17 09:30:58;;;;;;;;;27.75;25.25;;;;;19.81;64.39;102433.38;5101117;27;45350;-79
2021/07/17 09:33:26;;;;;;;;;29.25;26.50;;;;;19.79;65.03;102433.47;5096918;27;47444;-79
2021/07/17 09:35:53;;;;;;;;;32.00;27.50;;;;;19.78;65.22;102429.91;5100948;27;45582;-79
2021/07/17 09:38:20;;;;;;;;;28.25;26.00;;;;;19.77;65.28;102432.66;5117040;27;45938;-79
2021/07/17 09:40:52;;;;;;;;;29.50;24.50;;;;;19.78;64.68;102429.03;5101133;27;45290;-79
2021/07/17 09:43:26;;;;;;;;;32.25;25.75;;;;;19.76;64.63;102425.59;5100818;27;45535;-79
2021/07/17 09:45:52;;;;;;;;;28.75;25.00;;;;;19.74;64.85;102422.13;5100897;27;45429;-79
2021/07/17 09:48:21;;;;;;;;;30.25;26.00;;;;;19.77;65.13;102420.19;5116362;27;45306;-79
2021/07/17 09:50:49;;;;;;;;;27.75;23.50;;;;;19.84;65.06;102422.56;5095571;27;45498;-79
2021/07/17 09:53:36;;;;;;;;;24.50;24.00;;;;;19.89;64.54;102431.25;5100340;27;45303;-79
2021/07/17 09:56:10;;;;;;;;;28.50;26.75;;;;;19.92;64.79;102425.75;5100664;27;46608;-79
2021/07/17 09:58:38;;;;;;;;;24.00;20.50;;;;;20.01;64.80;102425.34;5100864;27;45712;-79
2021/07/17 10:01:13;;;;;;;;;31.50;25.50;;;;;20.12;64.19;102424.00;5100534;27;45310;-79
2021/07/17 10:03:39;;;;;;;;;24.00;22.25;;;;;20.18;64.52;102421.03;5100424;27;45377;-80
2021/07/17 10:06:07;;;;;;;;;24.25;20.50;;;;;20.26;63.94;102427.81;5098692;27;46171;-79
2021/07/17 10:08:34;;;;;;;;;25.75;20.50;;;;;20.32;62.67;102427.53;5102642;27;45663;-80
2021/07/17 10:11:02;;;;;;;;;20.50;19.75;;;;;20.35;62.79;102422.03;5118171;27;45388;-80
2021/07/17 10:13:28;;;;;;;;;21.75;18.75;;;;;20.40;62.95;102421.78;5093373;27;45243;-80
2021/07/17 10:15:53;;;;;;;;;22.25;19.25;;;;;20.45;62.73;102430.44;5098869;27;45282;-79
2021/07/17 10:18:25;;;;;;;;;19.25;18.00;;;;;20.49;62.49;102425.84;5093583;27;45218;-79
2021/07/17 10:20:55;;;;;;;;;27.25;23.25;;;;;20.51;62.29;102429.31;5094174;27;45331;-79
2021/07/17 10:23:20;;;;;;;;;21.50;16.75;;;;;20.52;62.78;102425.72;5089246;27;45459;-80
2021/07/17 10:25:46;;;;;;;;;24.50;23.00;;;;;20.57;62.08;102432.53;5091571;27;46366;-80
2021/07/17 10:28:12;;;;;;;;;26.25;24.25;;;;;20.64;62.02;102422.41;5091784;27;45377;-80
2021/07/17 10:30:38;;;;;;;;;27.00;21.75;;;;;20.73;62.16;102431.78;5094655;27;45729;-80
2021/07/17 10:33:04;;;;;;;;;26.50;23.50;;;;;20.82;62.00;102418.91;5097540;27;45491;-79
2021/07/17 10:35:30;;;;;;;;;19.50;15.00;;;;;20.87;61.25;102431.09;5100011;27;45511;-79
2021/07/17 10:37:59;;;;;;;;;31.00;25.75;;;;;20.90;61.95;102430.94;5100242;27;45307;-79
2021/07/17 10:40:25;;;;;;;;;25.50;24.75;;;;;20.91;61.33;102423.78;5115839;27;45219;-79
2021/07/17 10:42:55;;;;;;;;;23.25;20.75;;;;;20.92;61.28;102420.16;5092632;27;46017;-80
2021/07/17 10:45:35;;;;;;;;;25.50;21.00;;;;;20.95;61.77;102419.13;5099957;27;45437;-79
2021/07/17 10:48:01;;;;;;;;;27.00;22.75;;;;;20.95;61.92;102406.66;5099684;27;45655;-80
2021/07/17 10:50:36;;;;;;;;;24.50;22.25;;;;;20.99;62.31;102407.38;5100283;27;45205;-80
2021/07/17 10:53:02;;;;;;;;;24.50;22.50;;;;;20.99;62.16;102402.03;5099958;27;45952;-79
2021/07/17 10:55:30;;;;;;;;;29.75;24.50;;;;;21.04;62.06;102404.50;5100259;27;45218;-80
2021/07/17 10:58:15;;;;;;;;;24.50;23.50;;;;;21.07;61.79;102405.19;5099840;27;45364;-79
2021/07/17 11:00:49;;;;;;;;;21.75;20.00;;;;;21.09;61.62;102400.63;5104858;27;45427;-80
2021/07/17 11:03:22;;;;;;;;;25.75;22.00;;;;;21.13;61.10;102401.34;5107483;27;45368;-80
2021/07/17 11:05:48;;;;;;;;;26.25;21.50;;;;;21.17;60.93;102408.25;5100624;27;45260;-79
2021/07/17 11:08:35;;;;;;;;;22.50;22.25;;;;;21.19;60.98;102400.13;5103331;27;45401;-79
2021/07/17 11:11:21;;;;;;;;;26.75;23.25;;;;;21.27;60.51;102402.41;5103612;27;45299;-79
2021/07/17 11:13:46;;;;;;;;;29.00;22.50;;;;;21.28;59.99;102402.34;5103056;27;46179;-79
2021/07/17 11:16:12;;;;;;;;;22.25;20.00;;;;;21.28;60.77;102398.81;5103435;27;46245;-79
2021/07/17 11:18:39;;;;;;;;;26.75;24.00;;;;;21.31;60.59;102395.97;5102589;27;45492;-79
2021/07/17 11:21:06;;;;;;;;;22.50;21.00;;;;;21.33;60.68;102399.44;5103433;27;45233;-79
2021/07/17 11:23:34;;;;;;;;;25.25;23.50;;;;;21.36;61.02;102401.91;5118959;27;45984;-79
2021/07/17 11:26:06;;;;;;;;;26.25;23.00;;;;;21.36;60.70;102405.47;5101681;27;47387;-79
2021/07/17 11:31:46;;;;;;;;;29.25;24.00;;;;;21.51;60.09;102405.59;5089474;27;45399;-79
2021/07/17 11:34:14;;;;;;;;;27.00;24.75;;;;;21.52;60.56;102406.47;5102852;27;45284;-79
2021/07/17 11:36:54;;;;;;;;;27.75;23.25;;;;;21.53;60.38;102400.19;5103059;27;46224;-79
2021/07/17 11:39:25;;;;;;;;;27.00;22.25;;;;;21.54;59.82;102399.22;5102843;27;45666;-79
2021/07/17 11:41:51;;;;;;;;;26.25;21.25;;;;;21.58;60.53;102398.97;5103043;27;45316;-79
2021/07/17 11:44:16;;;;;;;;;21.75;17.50;;;;;21.61;59.53;102397.09;5102810;27;45684;-79
2021/07/17 11:47:11;;;;;;;;;26.50;22.25;;;;;21.61;60.18;102395.25;5102646;27;45354;-79
2021/07/17 11:49:41;;;;;;;;;34.25;28.75;;;;;21.59;58.55;102402.50;5102619;27;45413;-79
2021/07/17 11:52:08;;;;;;;;;26.75;23.25;;;;;21.56;59.78;102397.31;5102819;27;45222;-79
2021/07/17 11:54:36;;;;;;;;;32.50;25.00;;;;;21.58;59.61;102395.44;5102803;27;45395;-79
2021/07/17 11:57:04;;;;;;;;;28.25;23.75;;;;;21.62;59.83;102397.00;5102554;27;45640;-79
2021/07/17 11:59:30;;;;;;;;;22.25;20.25;;;;;21.64;59.54;102397.78;5102663;27;45230;-79
2021/07/17 12:02:00;;;;;;;;;30.25;26.25;;;;;21.67;59.05;102399.44;5102816;27;45216;-79
2021/07/17 12:04:40;;;;;;;;;23.75;22.25;;;;;21.72;59.07;102401.84;5102270;27;45366;-79
2021/07/17 12:07:08;;;;;;;;;25.75;22.75;;;;;21.72;59.42;102392.03;5102388;27;45444;-79
2021/07/17 12:09:37;;;;;;;;;26.25;23.75;;;;;21.73;58.99;102391.06;5102517;27;45327;-79
2021/07/17 12:12:46;;;;;;;;;30.75;23.00;;;;;21.78;59.33;102377.44;5102448;27;45273;-79
2021/07/17 12:15:33;;;;;;;;;23.25;22.00;;;;;21.86;58.50;102383.25;5097069;27;45517;-79
2021/07/17 12:18:03;;;;;;;;;25.25;24.00;;;;;21.93;59.92;102378.41;5100841;27;45491;-80
2021/07/17 12:20:31;;;;;;;;;25.75;25.50;;;;;21.99;59.05;102375.41;5104595;27;45238;-80
2021/07/17 12:23:05;;;;;;;;;24.00;20.75;;;;;22.07;59.06;102379.47;5093453;27;45509;-80
2021/07/17 12:25:36;;;;;;;;;24.00;22.75;;;;;22.09;58.85;102372.22;5101146;27;45352;-79
2021/07/17 12:28:08;;;;;;;;;20.50;18.50;;;;;22.10;58.43;102373.94;5099485;27;47959;-79
2021/07/17 12:30:39;;;;;;;;;23.75;21.50;;;;;22.10;59.04;102374.78;5098402;27;46992;-80
2021/07/17 12:33:18;;;;;;;;;32.00;30.50;;;;;22.09;57.96;102367.72;5097234;27;45325;-80
2021/07/17 12:35:45;;;;;;;;;29.50;26.50;;;;;22.08;58.71;102370.47;5099225;27;45489;-79
2021/07/17 12:38:18;;;;;;;;;29.50;23.50;;;;;22.08;58.77;102357.09;5117807;27;47383;-79
2021/07/17 12:40:51;;;;;;;;;27.75;25.00;;;;;22.12;59.01;102361.34;5101614;27;45556;-79
2021/07/17 12:43:21;;;;;;;;;31.25;28.50;;;;;22.17;59.12;102358.41;5102045;27;45394;-79
2021/07/17 12:45:57;;;;;;;;;28.75;23.00;;;;;22.24;59.46;102360.63;5101350;27;45478;-79
2021/07/17 12:48:22;;;;;;;;;26.25;23.75;;;;;22.26;59.43;102358.72;5101429;27;45505;-80
2021/07/17 12:50:47;;;;;;;;;24.75;22.50;;;;;22.27;59.26;102354.25;5088169;27;45366;-80
2021/07/17 12:53:14;;;;;;;;;26.00;23.75;;;;;22.32;58.39;102359.34;5099980;27;45338;-79
2021/07/17 12:55:41;;;;;;;;;25.50;22.50;;;;;22.29;58.47;102359.50;5100102;27;45222;-79
2021/07/17 12:58:09;;;;;;;;;32.00;28.25;;;;;22.26;58.80;102353.38;5101377;27;47085;-79
2021/07/17 13:00:34;;;;;;;;;25.75;22.50;;;;;22.28;59.20;102347.06;5088348;27;45332;-79
2021/07/17 13:03:00;;;;;;;;;24.75;23.75;;;;;22.28;58.80;102342.56;5117429;27;45352;-79
2021/07/17 13:05:46;;;;;;;;;25.50;22.75;;;;;22.33;59.27;102337.81;5101250;27;45421;-79
2021/07/17 13:08:18;;;;;;;;;27.75;26.25;;;;;22.36;59.02;102334.97;5099652;27;45421;-80
2021/07/17 13:10:43;;;;;;;;;26.00;22.75;;;;;22.43;59.03;102329.22;5095588;27;45254;-79
2021/07/17 13:13:09;;;;;;;;;26.75;24.75;;;;;22.46;58.79;102343.31;5101733;27;45262;-79
2021/07/17 13:15:35;;;;;;;;;29.50;27.00;;;;;22.56;58.58;102337.41;5101256;27;45582;-79
2021/07/17 13:18:14;;;;;;;;;30.25;24.25;;;;;22.60;58.43;102339.81;5101329;27;45436;-79
2021/07/17 13:20:40;;;;;;;;;22.50;22.25;;;;;22.67;58.53;102329.59;5100955;27;45229;-79
2021/07/17 13:23:05;;;;;;;;;31.25;27.50;;;;;22.69;58.43;102332.22;5101293;27;45177;-79
2021/07/17 13:25:37;;;;;;;;;26.75;23.50;;;;;22.70;58.84;102329.44;5100597;27;45538;-78
2021/07/17 13:28:11;;;;;;;;;26.00;23.50;;;;;22.66;58.38;102335.91;5101442;27;48089;-78
2021/07/17 13:30:38;;;;;;;;;24.25;24.00;;;;;22.61;58.99;102335.31;5101025;27;45279;-79
2021/07/17 13:33:06;;;;;;;;;29.75;26.50;;;;;22.62;58.75;102330.84;5100999;27;45345;-79
2021/07/17 13:35:32;;;;;;;;;30.25;27.25;;;;;22.62;58.19;102337.03;5100800;27;45517;-79
2021/07/17 13:38:02;;;;;;;;;25.75;23.00;;;;;22.63;58.20;102332.53;5100307;27;46204;-79
2021/07/17 13:40:30;;;;;;;;;28.25;27.00;;;;;22.62;58.44;102342.38;5087461;27;45299;-79
2021/07/17 13:43:00;;;;;;;;;28.75;26.00;;;;;22.61;58.62;102335.31;5100868;27;45244;-79
2021/07/17 13:45:25;;;;;;;;;24.75;24.25;;;;;22.64;58.59;102332.47;5099578;27;45917;-79
2021/07/17 13:47:56;;;;;;;;;25.50;24.25;;;;;22.68;58.15;102331.31;5116196;27;47061;-79
2021/07/17 13:50:21;;;;;;;;;31.50;28.00;;;;;22.73;58.26;102340.94;5100935;27;45151;-79
2021/07/17 13:52:58;;;;;;;;;24.00;22.75;;;;;22.72;58.18;102332.03;5116320;27;45341;-79
2021/07/17 13:55:26;;;;;;;;;24.50;24.00;;;;;22.73;58.19;102330.22;5116451;27;47373;-79
2021/07/17 13:58:08;;;;;;;;;30.25;26.25;;;;;22.79;58.16;102329.84;5113603;27;45526;-79
2021/07/17 14:00:52;;;;;;;;;30.00;26.50;;;;;22.84;58.45;102327.72;5097198;27;45147;-79
2021/07/17 14:03:30;;;;;;;;;29.75;24.50;;;;;22.90;58.14;102321.16;5091120;27;45172;-79
2021/07/17 14:05:58;;;;;;;;;27.00;23.50;;;;;22.95;58.28;102324.41;5102122;27;45526;-78
2021/07/17 14:08:24;;;;;;;;;26.50;24.75;;;;;22.97;57.83;102319.81;5099959;27;46151;-79
2021/07/17 14:10:50;;;;;;;;;30.75;27.50;;;;;22.99;57.92;102311.69;5098316;27;45901;-79
2021/07/17 14:13:16;;;;;;;;;30.50;26.00;;;;;23.02;58.15;102306.13;5100633;27;45289;-79
2021/07/17 14:15:42;;;;;;;;;28.00;22.25;;;;;23.04;58.03;102317.59;5099080;27;46031;-79
2021/07/17 14:18:08;;;;;;;;;24.25;23.25;;;;;23.07;58.15;102324.59;5099978;27;46420;-79
2021/07/17 14:20:34;;;;;;;;;22.75;21.75;;;;;23.08;57.90;102312.94;5100109;27;45851;-79
2021/07/17 14:23:01;;;;;;;;;28.25;25.00;;;;;23.10;58.57;102309.19;5111197;27;45396;-79
2021/07/17 14:25:27;;;;;;;;;25.50;24.25;;;;;23.14;58.01;102305.38;5094409;27;46191;-78
2021/07/17 14:27:52;;;;;;;;;29.25;26.00;;;;;23.19;57.90;102301.56;5099045;27;45289;-79
2021/07/17 14:30:18;;;;;;;;;24.25;21.75;;;;;23.23;57.52;102303.94;5092825;27;45356;-80
2021/07/17 14:32:43;;;;;;;;;23.50;21.25;;;;;23.25;57.52;102295.78;5098555;27;45417;-79
2021/07/17 14:35:09;;;;;;;;;25.50;24.75;;;;;23.27;57.02;102300.09;5102365;27;45493;-79
2021/07/17 14:37:34;;;;;;;;;27.25;23.50;;;;;23.26;57.21;102290.31;5107157;27;47086;-79
2021/07/17 14:40:00;;;;;;;;;28.50;24.50;;;;;23.26;57.86;102286.81;5111500;27;45277;-79
2021/07/17 14:42:26;;;;;;;;;22.00;21.00;;;;;23.25;57.65;102288.63;5103851;27;45273;-78
2021/07/17 14:44:51;;;;;;;;;28.75;23.25;;;;;23.26;57.76;102287.63;5115105;27;46404;-78
2021/07/17 14:47:16;;;;;;;;;25.25;22.00;;;;;23.27;57.82;102286.69;5102065;27;48329;-79
2021/07/17 14:49:42;;;;;;;;;30.25;25.00;;;;;23.33;57.57;102298.88;5119580;27;45935;-78
2021/07/17 14:52:09;;;;;;;;;25.50;23.75;;;;;23.34;57.46;102284.47;5102417;27;45324;-79
2021/07/17 14:54:34;;;;;;;;;26.50;24.00;;;;;23.35;57.59;102288.91;5103432;27;45517;-78
2021/07/17 14:56:59;;;;;;;;;26.75;23.75;;;;;23.40;57.37;102277.00;5120420;27;47083;-78
2021/07/17 14:59:25;;;;;;;;;26.50;26.50;;;;;23.40;57.45;102275.19;5111157;27;45314;-78
2021/07/17 15:01:50;;;;;;;;;32.00;26.00;;;;;23.42;57.90;102270.56;5103775;27;45599;-79
2021/07/17 15:04:17;;;;;;;;;27.25;23.50;;;;;23.44;57.96;102273.16;5118889;27;46333;-79
2021/07/17 15:06:42;;;;;;;;;26.50;24.50;;;;;23.48;57.41;102263.97;5103374;27;45301;-79
2021/07/17 15:09:08;;;;;;;;;28.75;26.75;;;;;23.51;57.46;102258.41;5103258;27;45689;-78
2021/07/17 15:11:34;;;;;;;;;20.75;20.25;;;;;23.54;57.51;102266.28;5102197;27;45273;-79
2021/07/17 15:14:00;;;;;;;;;28.75;27.00;;;;;23.57;57.27;102260.72;5103158;27;45238;-79
2021/07/17 15:16:25;;;;;;;;;30.25;24.25;;;;;23.59;57.34;102260.59;5103320;27;45501;-78
2021/07/17 15:18:50;;;;;;;;;26.00;23.00;;;;;23.59;57.70;102261.47;5118391;27;45399;-78
2021/07/17 15:21:16;;;;;;;;;25.75;22.25;;;;;23.64;57.40;102262.97;5102201;27;45224;-79
2021/07/17 15:23:42;;;;;;;;;27.75;23.75;;;;;23.68;57.04;102269.91;5101803;27;47448;-79
2021/07/17 15:26:09;;;;;;;;;33.50;26.50;;;;;23.68;57.48;102265.38;5102960;27;45299;-78
2021/07/17 15:28:36;;;;;;;;;25.75;22.75;;;;;23.72;57.27;102255.31;5118848;27;45834;-78
2021/07/17 15:31:02;;;;;;;;;24.25;21.00;;;;;23.75;57.09;102254.25;5107010;27;45309;-79
2021/07/17 15:33:28;;;;;;;;;25.50;23.25;;;;;23.75;56.73;102248.88;5110828;27;46094;-79
2021/07/17 15:35:53;;;;;;;;;23.50;19.00;;;;;23.76;56.15;102247.91;5102842;27;46339;-79
2021/07/17 15:38:19;;;;;;;;;23.25;21.25;;;;;23.78;56.94;102249.50;5118871;27;45228;-79
2021/07/17 15:40:44;;;;;;;;;23.25;20.25;;;;;23.78;56.95;102244.16;5118796;27;45318;-78
2021/07/17 15:43:10;;;;;;;;;24.50;24.25;;;;;23.81;56.62;102243.09;5102898;27;46419;-79